sensor_id;sensor_type;location;lat;lon;timestamp;pressure;altitude;pressure_sealevel;temperature;humidity
8366;BME280;4220;42.502;24.188;2023-05-22T00:00:57;95000.72;;;15.12;100.00
8366;BME280;4220;42.502;24.188;2023-05-22T00:03:27;94991.84;;;15.06;100.00
8366;BME280;4220;42.502;24.188;2023-05-22T00:05:54;94992.91;;;15.05;100.00
8366;BME280;4220;42.502;24.188;2023-05-22T00:08:23;94985.72;;;15.06;100.00
8366;BME280;4220;42.502;24.188;2023-05-22T00:10:50;94986.59;;;15.17;100.00
8366;BME280;4220;42.502;24.188;2023-05-22T00:13:17;94990.44;;;15.26;100.00
8366;BME280;4220;42.502;24.188;2023-05-22T00:15:45;94980.25;;;14.96;100.00
8366;BME280;4220;42.502;24.188;2023-05-22T00:18:12;94989.06;;;14.75;100.00
8366;BME280;4220;42.502;24.188;2023-05-22T00:20:40;94978.09;;;14.71;100.00
8366;BME280;4220;42.502;24.188;2023-05-22T00:23:07;94977.31;;;14.49;100.00
8366;BME280;4220;42.502;24.188;2023-05-22T00:25:35;94984.13;;;14.62;100.00
8366;BME280;4220;42.502;24.188;2023-05-22T00:28:02;94988.66;;;14.61;100.00
8366;BME280;4220;42.502;24.188;2023-05-22T00:30:30;94985.13;;;14.56;100.00
8366;BME280;4220;42.502;24.188;2023-05-22T00:32:57;94977.50;;;14.64;100.00
8366;BME280;4220;42.502;24.188;2023-05-22T00:35:24;94979.16;;;14.70;100.00
8366;BME280;4220;42.502;24.188;2023-05-22T00:37:52;94975.66;;;14.70;100.00
8366;BME280;4220;42.502;24.188;2023-05-22T00:40:20;94977.22;;;14.66;100.00
8366;BME280;4220;42.502;24.188;2023-05-22T00:42:47;94982.63;;;14.71;100.00
8366;BME280;4220;42.502;24.188;2023-05-22T00:45:14;94986.06;;;14.66;100.00
8366;BME280;4220;42.502;24.188;2023-05-22T00:47:41;94979.53;;;14.57;100.00
8366;BME280;4220;42.502;24.188;2023-05-22T00:50:09;94968.44;;;14.27;100.00
8366;BME280;4220;42.502;24.188;2023-05-22T00:52:40;94974.06;;;14.09;100.00
8366;BME280;4220;42.502;24.188;2023-05-22T00:55:09;94972.13;;;14.04;100.00
8366;BME280;4220;42.502;24.188;2023-05-22T00:57:37;94961.78;;;14.08;100.00
8366;BME280;4220;42.502;24.188;2023-05-22T01:00:07;94961.53;;;14.09;100.00
8366;BME280;4220;42.502;24.188;2023-05-22T01:02:36;94963.88;;;14.06;100.00
8366;BME280;4220;42.502;24.188;2023-05-22T01:05:04;94959.47;;;13.95;100.00
8366;BME280;4220;42.502;24.188;2023-05-22T01:07:32;94960.03;;;13.97;100.00
8366;BME280;4220;42.502;24.188;2023-05-22T01:10:03;94965.34;;;13.97;100.00
8366;BME280;4220;42.502;24.188;2023-05-22T01:12:40;94926.31;;;13.52;100.00
8366;BME280;4220;42.502;24.188;2023-05-22T01:15:16;94959.81;;;13.65;100.00
8366;BME280;4220;42.502;24.188;2023-05-22T01:17:54;94954.25;;;13.33;100.00
8366;BME280;4220;42.502;24.188;2023-05-22T01:20:28;94968.94;;;13.19;100.00
8366;BME280;4220;42.502;24.188;2023-05-22T01:23:19;94968.13;;;13.19;100.00
8366;BME280;4220;42.502;24.188;2023-05-22T01:29:39;94966.75;;;13.49;100.00
8366;BME280;4220;42.502;24.188;2023-05-22T01:32:12;94961.97;;;13.51;100.00
8366;BME280;4220;42.502;24.188;2023-05-22T01:34:43;94962.97;;;13.45;100.00
8366;BME280;4220;42.502;24.188;2023-05-22T01:37:11;94961.59;;;13.43;100.00
8366;BME280;4220;42.502;24.188;2023-05-22T01:39:39;94954.06;;;13.40;100.00
8366;BME280;4220;42.502;24.188;2023-05-22T01:42:07;94935.03;;;13.31;100.00
8366;BME280;4220;42.502;24.188;2023-05-22T01:44:34;94952.06;;;13.30;100.00
8366;BME280;4220;42.502;24.188;2023-05-22T01:47:01;94962.41;;;13.27;100.00
8366;BME280;4220;42.502;24.188;2023-05-22T01:49:32;94955.53;;;13.14;100.00
8366;BME280;4220;42.502;24.188;2023-05-22T01:52:05;94944.91;;;12.74;100.00
8366;BME280;4220;42.502;24.188;2023-05-22T01:54:39;94951.94;;;12.80;100.00
8366;BME280;4220;42.502;24.188;2023-05-22T01:57:13;94966.19;;;13.02;100.00
8366;BME280;4220;42.502;24.188;2023-05-22T01:59:43;94958.31;;;13.07;100.00
8366;BME280;4220;42.502;24.188;2023-05-22T02:02:14;94962.25;;;13.05;100.00
8366;BME280;4220;42.502;24.188;2023-05-22T02:04:45;94960.84;;;13.14;100.00
8366;BME280;4220;42.502;24.188;2023-05-22T02:07:15;94968.34;;;13.17;100.00
8366;BME280;4220;42.502;24.188;2023-05-22T02:09:46;94974.66;;;13.28;100.00
8366;BME280;4220;42.502;24.188;2023-05-22T02:12:14;94968.22;;;13.24;100.00
8366;BME280;4220;42.502;24.188;2023-05-22T02:14:42;94963.06;;;13.34;100.00
8366;BME280;4220;42.502;24.188;2023-05-22T02:17:09;94963.91;;;13.39;100.00
8366;BME280;4220;42.502;24.188;2023-05-22T02:19:36;94969.84;;;13.41;100.00
8366;BME280;4220;42.502;24.188;2023-05-22T02:22:05;94960.06;;;13.47;100.00
8366;BME280;4220;42.502;24.188;2023-05-22T02:24:34;94968.78;;;13.42;100.00
8366;BME280;4220;42.502;24.188;2023-05-22T02:27:01;94968.84;;;13.31;100.00
8366;BME280;4220;42.502;24.188;2023-05-22T02:29:29;94961.13;;;13.29;100.00
8366;BME280;4220;42.502;24.188;2023-05-22T02:31:56;94941.06;;;13.10;100.00
8366;BME280;4220;42.502;24.188;2023-05-22T02:34:23;94965.84;;;13.27;100.00
8366;BME280;4220;42.502;24.188;2023-05-22T02:36:51;94961.78;;;13.08;100.00
8366;BME280;4220;42.502;24.188;2023-05-22T02:39:19;94831.56;;;12.28;100.00
8366;BME280;4220;42.502;24.188;2023-05-22T02:41:46;94947.19;;;13.10;100.00
8366;BME280;4220;42.502;24.188;2023-05-22T02:44:13;94967.38;;;13.23;100.00
8366;BME280;4220;42.502;24.188;2023-05-22T02:46:40;94963.91;;;13.23;100.00
8366;BME280;4220;42.502;24.188;2023-05-22T02:49:07;94970.22;;;13.17;100.00
8366;BME280;4220;42.502;24.188;2023-05-22T02:51:34;94969.41;;;13.16;100.00
8366;BME280;4220;42.502;24.188;2023-05-22T02:54:01;94967.22;;;13.13;100.00
8366;BME280;4220;42.502;24.188;2023-05-22T02:56:29;94978.03;;;13.23;100.00
8366;BME280;4220;42.502;24.188;2023-05-22T02:58:56;94977.78;;;13.25;100.00
8366;BME280;4220;42.502;24.188;2023-05-22T03:01:23;94977.22;;;13.23;100.00
8366;BME280;4220;42.502;24.188;2023-05-22T03:03:50;94969.97;;;13.18;100.00
8366;BME280;4220;42.502;24.188;2023-05-22T03:06:19;94975.59;;;12.93;100.00
8366;BME280;4220;42.502;24.188;2023-05-22T03:08:45;94968.44;;;12.94;100.00
8366;BME280;4220;42.502;24.188;2023-05-22T03:11:13;94938.88;;;12.79;100.00
8366;BME280;4220;42.502;24.188;2023-05-22T03:13:41;94978.22;;;13.05;100.00
8366;BME280;4220;42.502;24.188;2023-05-22T03:16:08;94968.97;;;12.79;100.00
8366;BME280;4220;42.502;24.188;2023-05-22T03:18:35;94966.63;;;12.83;100.00
8366;BME280;4220;42.502;24.188;2023-05-22T03:21:02;94974.97;;;13.03;100.00
8366;BME280;4220;42.502;24.188;2023-05-22T03:23:29;94978.13;;;13.12;100.00
8366;BME280;4220;42.502;24.188;2023-05-22T03:25:56;94973.19;;;13.20;100.00
8366;BME280;4220;42.502;24.188;2023-05-22T03:28:23;94972.06;;;13.16;100.00
8366;BME280;4220;42.502;24.188;2023-05-22T03:30:51;94981.84;;;13.27;100.00
8366;BME280;4220;42.502;24.188;2023-05-22T03:33:18;94980.31;;;13.31;100.00
8366;BME280;4220;42.502;24.188;2023-05-22T03:35:44;94875.41;;;12.71;100.00
8366;BME280;4220;42.502;24.188;2023-05-22T03:38:11;94974.75;;;13.49;100.00
8366;BME280;4220;42.502;24.188;2023-05-22T03:40:39;94981.88;;;13.60;100.00
8366;BME280;4220;42.502;24.188;2023-05-22T03:43:06;94975.63;;;13.71;100.00
8366;BME280;4220;42.502;24.188;2023-05-22T03:45:33;94936.50;;;13.55;100.00
8366;BME280;4220;42.502;24.188;2023-05-22T03:48:01;94970.38;;;13.76;100.00
8366;BME280;4220;42.502;24.188;2023-05-22T03:50:28;94949.41;;;13.63;100.00
8366;BME280;4220;42.502;24.188;2023-05-22T03:52:55;94985.41;;;13.83;100.00
8366;BME280;4220;42.502;24.188;2023-05-22T03:55:22;94983.16;;;13.74;100.00
8366;BME280;4220;42.502;24.188;2023-05-22T03:57:49;94984.13;;;13.85;100.00
8366;BME280;4220;42.502;24.188;2023-05-22T04:00:16;94984.13;;;13.85;100.00
8366;BME280;4220;42.502;24.188;2023-05-22T04:02:44;94978.81;;;13.68;100.00
8366;BME280;4220;42.502;24.188;2023-05-22T04:05:12;94984.94;;;13.86;100.00
8366;BME280;4220;42.502;24.188;2023-05-22T04:07:39;94980.16;;;13.88;100.00
8366;BME280;4220;42.502;24.188;2023-05-22T04:10:15;94985.06;;;13.96;100.00
8366;BME280;4220;42.502;24.188;2023-05-22T04:12:45;94987.88;;;14.06;100.00
8366;BME280;4220;42.502;24.188;2023-05-22T04:15:12;94977.59;;;14.14;100.00
8366;BME280;4220;42.502;24.188;2023-05-22T04:17:39;94977.41;;;14.21;100.00
8366;BME280;4220;42.502;24.188;2023-05-22T04:20:07;94986.59;;;14.30;100.00
8366;BME280;4220;42.502;24.188;2023-05-22T04:22:37;94988.88;;;14.38;100.00
8366;BME280;4220;42.502;24.188;2023-05-22T04:25:04;94988.81;;;14.33;100.00
8366;BME280;4220;42.502;24.188;2023-05-22T04:27:31;94983.47;;;14.33;100.00
8366;BME280;4220;42.502;24.188;2023-05-22T04:29:59;94977.09;;;14.34;100.00
8366;BME280;4220;42.502;24.188;2023-05-22T04:32:26;94974.25;;;14.02;100.00
8366;BME280;4220;42.502;24.188;2023-05-22T04:34:54;94987.94;;;14.27;100.00
8366;BME280;4220;42.502;24.188;2023-05-22T04:37:23;94980.06;;;14.37;100.00
8366;BME280;4220;42.502;24.188;2023-05-22T04:39:54;94991.25;;;14.56;100.00
8366;BME280;4220;42.502;24.188;2023-05-22T04:42:22;94994.69;;;14.52;100.00
8366;BME280;4220;42.502;24.188;2023-05-22T04:44:50;94994.69;;;14.73;100.00
8366;BME280;4220;42.502;24.188;2023-05-22T04:47:18;94977.09;;;14.77;100.00
8366;BME280;4220;42.502;24.188;2023-05-22T04:49:46;94979.72;;;14.99;100.00
8366;BME280;4220;42.502;24.188;2023-05-22T04:52:13;94984.28;;;15.25;100.00
8366;BME280;4220;42.502;24.188;2023-05-22T04:54:40;94980.78;;;15.46;100.00
8366;BME280;4220;42.502;24.188;2023-05-22T04:57:10;94984.53;;;15.77;100.00
8366;BME280;4220;42.502;24.188;2023-05-22T04:59:37;94989.25;;;16.02;100.00
8366;BME280;4220;42.502;24.188;2023-05-22T05:02:04;94984.53;;;16.19;100.00
8366;BME280;4220;42.502;24.188;2023-05-22T05:04:32;94992.13;;;16.37;100.00
8366;BME280;4220;42.502;24.188;2023-05-22T05:06:59;94991.97;;;16.54;100.00
8366;BME280;4220;42.502;24.188;2023-05-22T05:09:26;94983.97;;;16.59;99.37
8366;BME280;4220;42.502;24.188;2023-05-22T05:11:54;94997.44;;;16.79;98.86
8366;BME280;4220;42.502;24.188;2023-05-22T05:14:22;95006.03;;;16.86;96.97
8366;BME280;4220;42.502;24.188;2023-05-22T05:16:49;95010.88;;;16.89;96.33
8366;BME280;4220;42.502;24.188;2023-05-22T05:19:17;95009.84;;;16.95;93.89
8366;BME280;4220;42.502;24.188;2023-05-22T05:21:46;95002.84;;;16.89;94.50
8366;BME280;4220;42.502;24.188;2023-05-22T05:24:14;94990.50;;;16.88;93.70
8366;BME280;4220;42.502;24.188;2023-05-22T05:26:41;95004.25;;;17.07;92.89
8366;BME280;4220;42.502;24.188;2023-05-22T05:29:08;95017.16;;;17.20;90.55
8366;BME280;4220;42.502;24.188;2023-05-22T05:31:36;95005.38;;;17.26;88.47
8366;BME280;4220;42.502;24.188;2023-05-22T05:34:03;95012.09;;;17.38;89.07
8366;BME280;4220;42.502;24.188;2023-05-22T05:36:30;95008.59;;;17.38;88.07
8366;BME280;4220;42.502;24.188;2023-05-22T05:38:57;95005.41;;;17.36;87.57
8366;BME280;4220;42.502;24.188;2023-05-22T05:41:25;95006.81;;;17.53;85.87
8366;BME280;4220;42.502;24.188;2023-05-22T05:43:52;94989.34;;;17.51;86.96
8366;BME280;4220;42.502;24.188;2023-05-22T05:46:21;95019.44;;;17.73;86.32
8366;BME280;4220;42.502;24.188;2023-05-22T05:48:50;95003.59;;;17.82;85.11
8366;BME280;4220;42.502;24.188;2023-05-22T05:51:18;95026.69;;;17.98;78.75
8366;BME280;4220;42.502;24.188;2023-05-22T05:53:45;95018.34;;;17.99;79.28
8366;BME280;4220;42.502;24.188;2023-05-22T05:56:13;95017.28;;;18.10;80.08
8366;BME280;4220;42.502;24.188;2023-05-22T05:58:40;95025.88;;;18.12;80.73
8366;BME280;4220;42.502;24.188;2023-05-22T06:01:07;94999.56;;;18.14;80.52
8366;BME280;4220;42.502;24.188;2023-05-22T06:03:34;95021.28;;;18.28;77.86
8366;BME280;4220;42.502;24.188;2023-05-22T06:06:02;95027.97;;;18.41;77.41
8366;BME280;4220;42.502;24.188;2023-05-22T06:08:30;95032.53;;;18.50;76.26
8366;BME280;4220;42.502;24.188;2023-05-22T06:10:58;95015.38;;;18.51;81.85
8366;BME280;4220;42.502;24.188;2023-05-22T06:13:25;95026.09;;;18.56;83.36
8366;BME280;4220;42.502;24.188;2023-05-22T06:15:52;95024.47;;;18.55;81.63
8366;BME280;4220;42.502;24.188;2023-05-22T06:18:19;95030.94;;;18.64;77.47
8366;BME280;4220;42.502;24.188;2023-05-22T06:20:48;95026.56;;;18.83;74.91
8366;BME280;4220;42.502;24.188;2023-05-22T06:23:16;95021.66;;;19.01;76.26
8366;BME280;4220;42.502;24.188;2023-05-22T06:25:43;95011.41;;;19.08;76.01
8366;BME280;4220;42.502;24.188;2023-05-22T06:28:11;95025.28;;;19.30;75.18
8366;BME280;4220;42.502;24.188;2023-05-22T06:30:38;95028.34;;;19.62;73.85
8366;BME280;4220;42.502;24.188;2023-05-22T06:33:05;95031.94;;;19.86;73.01
8366;BME280;4220;42.502;24.188;2023-05-22T06:35:32;95029.94;;;20.07;72.29
8366;BME280;4220;42.502;24.188;2023-05-22T06:37:59;95031.72;;;20.16;70.20
8366;BME280;4220;42.502;24.188;2023-05-22T06:40:28;95037.63;;;20.18;69.22
8366;BME280;4220;42.502;24.188;2023-05-22T06:42:56;95035.66;;;20.34;68.33
8366;BME280;4220;42.502;24.188;2023-05-22T06:45:23;95039.06;;;20.40;67.69
8366;BME280;4220;42.502;24.188;2023-05-22T06:47:51;95032.63;;;20.41;67.30
8366;BME280;4220;42.502;24.188;2023-05-22T06:50:19;95036.81;;;20.52;67.14
8366;BME280;4220;42.502;24.188;2023-05-22T06:52:46;95012.72;;;20.37;66.95
8366;BME280;4220;42.502;24.188;2023-05-22T06:55:14;95038.41;;;20.53;66.63
8366;BME280;4220;42.502;24.188;2023-05-22T06:57:42;95043.81;;;20.53;66.46
8366;BME280;4220;42.502;24.188;2023-05-22T07:00:10;95042.16;;;20.57;65.03
8366;BME280;4220;42.502;24.188;2023-05-22T07:02:37;95009.34;;;20.50;64.64
8366;BME280;4220;42.502;24.188;2023-05-22T07:05:05;95046.72;;;20.85;67.20
8366;BME280;4220;42.502;24.188;2023-05-22T07:07:32;95045.00;;;20.94;65.94
8366;BME280;4220;42.502;24.188;2023-05-22T07:09:59;95042.16;;;21.09;65.49
8366;BME280;4220;42.502;24.188;2023-05-22T07:12:26;95046.41;;;21.15;65.33
8366;BME280;4220;42.502;24.188;2023-05-22T07:14:55;95051.19;;;21.18;63.40
8366;BME280;4220;42.502;24.188;2023-05-22T07:17:24;95045.25;;;21.21;62.72
8366;BME280;4220;42.502;24.188;2023-05-22T07:19:51;95046.38;;;21.39;59.95
8366;BME280;4220;42.502;24.188;2023-05-22T07:22:18;95052.50;;;21.44;60.37
8366;BME280;4220;42.502;24.188;2023-05-22T07:24:45;95047.50;;;21.57;59.97
8366;BME280;4220;42.502;24.188;2023-05-22T07:27:12;95009.41;;;21.39;59.33
8366;BME280;4220;42.502;24.188;2023-05-22T07:29:39;95052.81;;;21.80;59.12
8366;BME280;4220;42.502;24.188;2023-05-22T07:32:08;95058.44;;;21.84;58.11
8366;BME280;4220;42.502;24.188;2023-05-22T07:34:35;95056.41;;;21.94;58.49
8366;BME280;4220;42.502;24.188;2023-05-22T07:37:05;95047.22;;;21.77;59.80
8366;BME280;4220;42.502;24.188;2023-05-22T07:39:32;95035.94;;;21.70;60.98
8366;BME280;4220;42.502;24.188;2023-05-22T07:41:59;95034.13;;;21.46;62.46
8366;BME280;4220;42.502;24.188;2023-05-22T07:44:27;95053.53;;;21.67;62.76
8366;BME280;4220;42.502;24.188;2023-05-22T07:46:54;95042.31;;;21.79;62.24
8366;BME280;4220;42.502;24.188;2023-05-22T07:49:22;95017.94;;;21.46;62.44
8366;BME280;4220;42.502;24.188;2023-05-22T07:51:49;95051.06;;;21.52;62.49
8366;BME280;4220;42.502;24.188;2023-05-22T07:54:16;95002.66;;;21.18;62.98
8366;BME280;4220;42.502;24.188;2023-05-22T07:56:44;95049.50;;;21.65;62.18
8366;BME280;4220;42.502;24.188;2023-05-22T07:59:12;95052.31;;;21.78;61.76
8366;BME280;4220;42.502;24.188;2023-05-22T08:01:39;95041.91;;;21.90;61.39
8366;BME280;4220;42.502;24.188;2023-05-22T08:04:07;95042.06;;;21.99;60.16
8366;BME280;4220;42.502;24.188;2023-05-22T08:06:35;95053.13;;;21.97;58.12
8366;BME280;4220;42.502;24.188;2023-05-22T08:09:03;95052.53;;;22.00;58.48
8366;BME280;4220;42.502;24.188;2023-05-22T08:11:30;95041.75;;;22.00;57.57
8366;BME280;4220;42.502;24.188;2023-05-22T08:13:58;95064.66;;;22.03;56.48
8366;BME280;4220;42.502;24.188;2023-05-22T08:16:25;95048.38;;;21.89;56.85
8366;BME280;4220;42.502;24.188;2023-05-22T08:18:52;95044.66;;;21.85;56.64
8366;BME280;4220;42.502;24.188;2023-05-22T08:21:18;95057.13;;;22.00;56.04
8366;BME280;4220;42.502;24.188;2023-05-22T08:23:47;95042.81;;;21.81;56.03
8366;BME280;4220;42.502;24.188;2023-05-22T08:26:14;95032.84;;;21.81;55.09
8366;BME280;4220;42.502;24.188;2023-05-22T08:28:41;95060.50;;;22.10;55.39
8366;BME280;4220;42.502;24.188;2023-05-22T08:31:09;95034.38;;;22.06;55.72
8366;BME280;4220;42.502;24.188;2023-05-22T08:33:36;95056.03;;;22.20;55.72
8366;BME280;4220;42.502;24.188;2023-05-22T08:36:03;95066.09;;;22.33;55.06
8366;BME280;4220;42.502;24.188;2023-05-22T08:38:30;95067.44;;;22.49;55.27
8366;BME280;4220;42.502;24.188;2023-05-22T08:40:58;95063.56;;;22.55;55.56
8366;BME280;4220;42.502;24.188;2023-05-22T08:43:26;95046.31;;;22.51;55.59
8366;BME280;4220;42.502;24.188;2023-05-22T08:45:58;95054.41;;;22.69;55.08
8366;BME280;4220;42.502;24.188;2023-05-22T08:48:28;95023.72;;;22.60;54.76
8366;BME280;4220;42.502;24.188;2023-05-22T08:50:57;95045.41;;;22.88;54.55
8366;BME280;4220;42.502;24.188;2023-05-22T08:53:27;95020.38;;;22.96;54.15
8366;BME280;4220;42.502;24.188;2023-05-22T08:55:55;95049.03;;;23.37;54.12
8366;BME280;4220;42.502;24.188;2023-05-22T08:58:24;95040.44;;;23.35;54.44
8366;BME280;4220;42.502;24.188;2023-05-22T09:00:52;95021.50;;;23.35;55.02
8366;BME280;4220;42.502;24.188;2023-05-22T09:03:19;95042.41;;;23.03;55.45
8366;BME280;4220;42.502;24.188;2023-05-22T09:05:47;95041.38;;;22.71;55.29
8366;BME280;4220;42.502;24.188;2023-05-22T09:08:16;95037.91;;;22.52;55.75
8366;BME280;4220;42.502;24.188;2023-05-22T09:10:43;95043.91;;;22.49;56.24
8366;BME280;4220;42.502;24.188;2023-05-22T09:13:24;95031.31;;;22.26;56.82
8366;BME280;4220;42.502;24.188;2023-05-22T09:15:52;95051.91;;;22.41;56.72
8366;BME280;4220;42.502;24.188;2023-05-22T09:18:19;95032.94;;;22.27;57.53
8366;BME280;4220;42.502;24.188;2023-05-22T09:20:46;95046.53;;;22.22;58.24
8366;BME280;4220;42.502;24.188;2023-05-22T09:23:14;95027.19;;;22.15;60.00
8366;BME280;4220;42.502;24.188;2023-05-22T09:25:43;94974.03;;;21.60;65.94
8366;BME280;4220;42.502;24.188;2023-05-22T09:28:10;95035.75;;;21.66;68.06
8366;BME280;4220;42.502;24.188;2023-05-22T09:30:39;95066.44;;;21.70;69.01
8366;BME280;4220;42.502;24.188;2023-05-22T09:33:07;95070.78;;;21.47;66.96
8366;BME280;4220;42.502;24.188;2023-05-22T09:35:34;95078.19;;;20.90;70.31
8366;BME280;4220;42.502;24.188;2023-05-22T09:38:03;95066.19;;;20.19;74.48
8366;BME280;4220;42.502;24.188;2023-05-22T09:40:32;95041.75;;;19.72;65.76
8366;BME280;4220;42.502;24.188;2023-05-22T09:43:00;95072.38;;;19.76;71.99
8366;BME280;4220;42.502;24.188;2023-05-22T09:45:27;95064.34;;;19.71;81.95
8366;BME280;4220;42.502;24.188;2023-05-22T09:47:56;95069.59;;;19.52;74.53
8366;BME280;4220;42.502;24.188;2023-05-22T09:50:22;95074.44;;;19.50;76.65
8366;BME280;4220;42.502;24.188;2023-05-22T09:52:49;95066.25;;;19.66;77.68
8366;BME280;4220;42.502;24.188;2023-05-22T09:55:19;95080.91;;;19.88;75.62
8366;BME280;4220;42.502;24.188;2023-05-22T09:57:50;95074.44;;;19.94;82.28
8366;BME280;4220;42.502;24.188;2023-05-22T10:00:18;95059.06;;;19.56;82.86
8366;BME280;4220;42.502;24.188;2023-05-22T10:02:47;95060.34;;;19.05;95.26
8366;BME280;4220;42.502;24.188;2023-05-22T10:05:16;95063.97;;;18.40;100.00
8366;BME280;4220;42.502;24.188;2023-05-22T10:07:48;95039.03;;;17.84;100.00
8366;BME280;4220;42.502;24.188;2023-05-22T10:10:19;95032.03;;;17.88;100.00
8366;BME280;4220;42.502;24.188;2023-05-22T10:12:49;95007.38;;;17.86;100.00
8366;BME280;4220;42.502;24.188;2023-05-22T10:15:18;95048.09;;;18.43;96.93
8366;BME280;4220;42.502;24.188;2023-05-22T10:17:47;95022.28;;;18.77;96.37
8366;BME280;4220;42.502;24.188;2023-05-22T10:20:15;95054.88;;;19.25;96.38
8366;BME280;4220;42.502;24.188;2023-05-22T10:22:42;95057.94;;;19.67;95.52
8366;BME280;4220;42.502;24.188;2023-05-22T10:25:11;95059.94;;;19.85;90.58
8366;BME280;4220;42.502;24.188;2023-05-22T10:27:38;95047.63;;;20.13;93.19
8366;BME280;4220;42.502;24.188;2023-05-22T10:30:15;95022.78;;;20.26;91.14
8366;BME280;4220;42.502;24.188;2023-05-22T10:32:47;95074.94;;;20.93;93.05
8366;BME280;4220;42.502;24.188;2023-05-22T10:35:20;95074.03;;;21.26;89.32
8366;BME280;4220;42.502;24.188;2023-05-22T10:37:52;95067.72;;;21.35;87.83
8366;BME280;4220;42.502;24.188;2023-05-22T10:40:24;95075.88;;;21.30;86.40
8366;BME280;4220;42.502;24.188;2023-05-22T10:42:58;95078.13;;;21.23;87.56
8366;BME280;4220;42.502;24.188;2023-05-22T10:45:25;95066.06;;;21.16;85.03
8366;BME280;4220;42.502;24.188;2023-05-22T10:48:04;95074.41;;;21.19;83.91
8366;BME280;4220;42.502;24.188;2023-05-22T10:50:32;95070.09;;;21.18;84.99
8366;BME280;4220;42.502;24.188;2023-05-22T10:53:19;95076.47;;;21.27;89.22
8366;BME280;4220;42.502;24.188;2023-05-22T10:55:47;95069.88;;;21.15;84.75
8366;BME280;4220;42.502;24.188;2023-05-22T10:58:14;95044.03;;;21.09;81.51
8366;BME280;4220;42.502;24.188;2023-05-22T11:00:42;95071.06;;;21.27;78.47
8366;BME280;4220;42.502;24.188;2023-05-22T11:03:08;95069.56;;;21.16;75.95
8366;BME280;4220;42.502;24.188;2023-05-22T11:05:38;95086.69;;;21.07;78.15
8366;BME280;4220;42.502;24.188;2023-05-22T11:08:09;95025.06;;;20.66;81.20
8366;BME280;4220;42.502;24.188;2023-05-22T11:10:52;95075.84;;;20.83;83.66
8366;BME280;4220;42.502;24.188;2023-05-22T11:13:19;95062.00;;;20.66;82.53
8366;BME280;4220;42.502;24.188;2023-05-22T11:15:47;95039.41;;;19.99;83.85
8366;BME280;4220;42.502;24.188;2023-05-22T11:18:15;95046.06;;;19.09;85.43
8366;BME280;4220;42.502;24.188;2023-05-22T11:20:45;95041.09;;;18.72;89.62
8366;BME280;4220;42.502;24.188;2023-05-22T11:23:12;95031.94;;;18.83;95.43
8366;BME280;4220;42.502;24.188;2023-05-22T11:25:40;95053.66;;;18.87;93.75
8366;BME280;4220;42.502;24.188;2023-05-22T11:28:07;95041.56;;;18.89;96.91
8366;BME280;4220;42.502;24.188;2023-05-22T11:30:36;95059.75;;;19.18;99.54
8366;BME280;4220;42.502;24.188;2023-05-22T11:33:04;95056.53;;;19.16;100.00
8366;BME280;4220;42.502;24.188;2023-05-22T11:35:31;95060.78;;;19.37;100.00
8366;BME280;4220;42.502;24.188;2023-05-22T11:38:03;95055.69;;;19.30;94.49
8366;BME280;4220;42.502;24.188;2023-05-22T11:40:30;95057.81;;;19.38;92.05
8366;BME280;4220;42.502;24.188;2023-05-22T11:42:57;95056.63;;;19.60;93.00
8366;BME280;4220;42.502;24.188;2023-05-22T11:45:24;95031.53;;;19.69;93.45
8366;BME280;4220;42.502;24.188;2023-05-22T11:47:52;95052.03;;;20.04;84.16
8366;BME280;4220;42.502;24.188;2023-05-22T11:50:19;95054.66;;;20.71;87.81
8366;BME280;4220;42.502;24.188;2023-05-22T11:52:46;95059.69;;;21.30;84.16
8366;BME280;4220;42.502;24.188;2023-05-22T11:55:15;95045.00;;;21.60;82.96
8366;BME280;4220;42.502;24.188;2023-05-22T11:57:41;95039.69;;;21.92;77.02
8366;BME280;4220;42.502;24.188;2023-05-22T12:00:09;95063.25;;;21.87;74.91
8366;BME280;4220;42.502;24.188;2023-05-22T12:02:36;95008.06;;;20.95;78.54
8366;BME280;4220;42.502;24.188;2023-05-22T12:05:03;95045.34;;;20.64;75.54
8366;BME280;4220;42.502;24.188;2023-05-22T12:07:31;95025.44;;;19.97;78.22
8366;BME280;4220;42.502;24.188;2023-05-22T12:09:58;95031.06;;;19.62;83.42
8366;BME280;4220;42.502;24.188;2023-05-22T12:12:27;95035.81;;;19.75;80.50
8366;BME280;4220;42.502;24.188;2023-05-22T12:14:53;95030.63;;;20.17;80.21
8366;BME280;4220;42.502;24.188;2023-05-22T12:17:21;95015.28;;;20.47;75.29
8366;BME280;4220;42.502;24.188;2023-05-22T12:19:48;95017.13;;;20.56;74.44
8366;BME280;4220;42.502;24.188;2023-05-22T12:22:15;95039.38;;;20.91;71.94
8366;BME280;4220;42.502;24.188;2023-05-22T12:24:43;95026.28;;;20.79;73.61
8366;BME280;4220;42.502;24.188;2023-05-22T12:27:12;95014.00;;;20.92;72.68
8366;BME280;4220;42.502;24.188;2023-05-22T12:29:41;95028.91;;;20.84;73.88
8366;BME280;4220;42.502;24.188;2023-05-22T12:32:09;95031.66;;;20.79;75.94
8366;BME280;4220;42.502;24.188;2023-05-22T12:34:42;95015.69;;;21.11;75.82
8366;BME280;4220;42.502;24.188;2023-05-22T12:37:17;95027.56;;;21.52;72.70
8366;BME280;4220;42.502;24.188;2023-05-22T12:39:52;95030.16;;;22.32;69.83
8366;BME280;4220;42.502;24.188;2023-05-22T12:42:19;95030.97;;;22.46;66.57
8366;BME280;4220;42.502;24.188;2023-05-22T12:44:49;95025.75;;;22.04;65.79
8366;BME280;4220;42.502;24.188;2023-05-22T12:47:17;95023.66;;;21.21;67.04
8366;BME280;4220;42.502;24.188;2023-05-22T12:49:44;95015.22;;;21.04;70.31
8366;BME280;4220;42.502;24.188;2023-05-22T12:52:11;95016.44;;;20.93;70.14
8366;BME280;4220;42.502;24.188;2023-05-22T12:54:38;94992.06;;;20.79;69.85
8366;BME280;4220;42.502;24.188;2023-05-22T12:57:05;94998.88;;;20.96;69.83
8366;BME280;4220;42.502;24.188;2023-05-22T12:59:32;95008.50;;;21.25;70.69
8366;BME280;4220;42.502;24.188;2023-05-22T13:02:03;95014.50;;;21.22;72.13
8366;BME280;4220;42.502;24.188;2023-05-22T13:04:30;95016.81;;;20.81;72.60
8366;BME280;4220;42.502;24.188;2023-05-22T13:06:57;95009.41;;;20.45;75.25
8366;BME280;4220;42.502;24.188;2023-05-22T13:09:24;95003.78;;;20.07;78.74
8366;BME280;4220;42.502;24.188;2023-05-22T13:11:51;95001.38;;;20.06;79.29
8366;BME280;4220;42.502;24.188;2023-05-22T13:14:18;94987.16;;;20.00;80.85
8366;BME280;4220;42.502;24.188;2023-05-22T13:16:45;95016.34;;;20.22;80.14